createdAt,value
2022-08-26T06:25:31.751Z,101123.13
2022-08-26T06:28:24.954Z,101117.47
2022-08-26T06:30:53.402Z,101093.22
2022-08-26T06:33:21.681Z,101092.81
2022-08-26T06:35:51.329Z,101128.72
2022-08-26T06:51:42.363Z,101103.47
2022-08-26T06:54:32.018Z,101113.13
2022-08-26T06:57:25.649Z,101115.94
2022-08-26T07:00:15.112Z,101127.59
2022-08-26T07:02:46.209Z,101133.22
2022-08-26T07:05:28.391Z,101132.81
2022-08-26T07:07:58.254Z,101129.19
2022-08-26T07:10:26.240Z,101103.38
2022-08-26T07:12:54.321Z,101130.78
2022-08-26T07:15:23.867Z,101113.44
2022-08-26T07:17:54.497Z,101118.28
2022-08-26T07:20:22.692Z,101138.00
2022-08-26T07:22:49.889Z,101113.44
2022-08-26T07:25:17.080Z,101112.22
2022-08-26T07:27:46.837Z,101138.03
2022-08-26T07:30:21.859Z,101115.00
2022-08-26T07:32:50.047Z,101138.03
2022-08-26T07:35:19.712Z,101131.16
2022-08-26T07:37:51.027Z,101139.22
2022-08-26T07:40:27.547Z,101126.69
2022-08-26T07:42:56.761Z,101129.91
2022-08-26T07:45:24.687Z,101131.53
2022-08-26T07:47:53.347Z,101132.31
2022-08-26T07:50:22.605Z,101137.97
2022-08-26T07:53:10.973Z,101113.75
2022-08-26T07:55:40.710Z,101100.44
2022-08-26T07:58:18.594Z,101109.69
2022-08-26T08:01:08.464Z,101130.25
2022-08-26T08:03:45.362Z,101101.59
2022-08-26T08:06:21.743Z,101107.22
2022-08-26T08:08:59.769Z,101125.75
2022-08-26T08:11:34.152Z,101115.97
2022-08-26T08:14:20.454Z,101121.22
2022-08-26T08:18:07.425Z,101127.66
2022-08-26T08:20:17.454Z,101123.56
2022-08-26T08:23:07.207Z,101093.31
2022-08-26T08:29:37.516Z,101098.06
2022-08-26T08:37:08.684Z,101124.25
2022-08-26T08:40:09.345Z,101119.75
2022-08-26T08:46:14.807Z,101120.19
2022-08-26T08:49:07.057Z,101133.03
2022-08-26T08:51:58.844Z,101121.66
2022-08-26T08:54:30.347Z,101103.50
2022-08-26T08:57:22.561Z,101118.72
2022-08-26T09:00:12.598Z,101119.09
2022-08-26T09:02:54.174Z,101101.72
2022-08-26T09:05:48.507Z,101088.75
2022-08-26T09:08:28.652Z,101118.41
2022-08-26T09:12:04.837Z,101107.00
2022-08-26T09:33:30.852Z,101093.63
2022-08-26T09:36:26.593Z,101088.06
2022-08-26T09:39:47.912Z,101095.91
2022-08-26T09:42:19.182Z,101086.50
2022-08-26T09:45:14.518Z,101087.31
2022-08-26T09:48:01.342Z,101074.28
2022-08-26T09:53:25.233Z,101072.00
2022-08-26T09:59:01.637Z,101069.31
2022-08-26T11:14:46.212Z,101028.41
2022-08-26T11:29:13.659Z,101009.00
2022-08-26T11:31:41.113Z,100991.28
2022-08-26T11:37:57.874Z,101011.19
2022-08-26T11:41:21.723Z,100986.16
2022-08-26T11:43:53.941Z,100971.75
2022-08-26T11:46:30.736Z,100983.97
2022-08-26T11:51:52.329Z,100974.94
2022-08-26T11:55:08.722Z,100996.19
2022-08-26T11:57:52.387Z,100967.81
2022-08-26T12:00:46.026Z,100988.16
2022-08-26T12:03:36.769Z,100988.16
2022-08-26T12:06:45.721Z,100980.50
2022-08-26T12:09:36.953Z,100981.78
2022-08-26T12:12:13.939Z,100975.72
2022-08-26T12:14:42.086Z,100963.81
2022-08-26T12:17:41.492Z,100942.59
2022-08-26T12:20:31.809Z,100947.44
2022-08-26T12:26:31.425Z,100941.69
2022-08-26T12:29:48.477Z,100933.81
2022-08-26T12:32:18.754Z,100928.94
2022-08-26T12:35:28.066Z,100957.03
2022-08-26T12:39:23.832Z,100935.34
2022-08-26T12:48:53.912Z,100919.88
2022-08-26T12:55:12.066Z,100930.97
2022-08-26T12:57:40.292Z,100927.06
2022-08-26T13:00:42.962Z,100925.50
2022-08-26T13:03:53.282Z,100924.63
2022-08-26T13:06:31.774Z,100893.19
2022-08-26T13:09:10.201Z,100927.50
2022-08-26T13:12:20.543Z,100918.88
2022-08-26T13:15:29.546Z,100902.13
2022-08-26T13:18:29.901Z,100920.28
2022-08-26T13:23:39.485Z,100918.13
2022-08-26T13:29:36.707Z,100906.84
2022-08-26T13:32:06.113Z,100910.56
2022-08-26T13:34:35.239Z,100902.38
2022-08-26T13:37:04.913Z,100901.38
2022-08-26T13:42:27.633Z,100888.09
2022-08-26T13:45:00.073Z,100888.97
2022-08-26T13:47:30.910Z,100882.91
2022-08-26T13:49:58.334Z,100878.84
2022-08-26T13:52:30.652Z,100864.75
2022-08-26T13:55:01.471Z,100846.31
2022-08-26T13:57:30.497Z,100852.44
2022-08-26T13:59:59.662Z,100878.03
2022-08-26T14:02:27.956Z,100862.72
2022-08-26T14:04:55.744Z,100843.00
2022-08-26T14:07:23.388Z,100880.50
2022-08-26T14:09:50.873Z,100876.22
2022-08-26T14:12:18.209Z,100867.88
2022-08-26T14:14:45.448Z,100854.09
2022-08-26T14:17:19.929Z,100851.81
2022-08-26T14:19:49.509Z,100864.28
2022-08-26T14:22:19.524Z,100857.47
2022-08-26T14:25:06.686Z,100836.03
2022-08-26T14:27:36.291Z,100860.63
2022-08-26T14:30:04.869Z,100829.56
2022-08-26T14:32:33.743Z,100839.31
2022-08-26T14:35:01.684Z,100827.25
2022-08-26T14:37:29.208Z,100837.88
2022-08-26T14:39:57.033Z,100818.06
2022-08-26T14:42:31.357Z,100827.41
2022-08-26T14:45:02.250Z,100842.97
2022-08-26T14:47:30.095Z,100835.00
2022-08-26T14:49:57.681Z,100844.59
2022-08-26T14:52:25.196Z,100820.22
2022-08-26T14:54:55.491Z,100833.06
2022-08-26T14:57:22.713Z,100817.88
2022-08-26T14:59:50.663Z,100825.97
2022-08-26T15:02:32.656Z,100835.06
2022-08-26T15:05:01.716Z,100854.19
2022-08-26T15:07:28.894Z,100804.06
2022-08-26T15:09:56.203Z,100813.34
2022-08-26T15:12:23.311Z,100811.75
2022-08-26T15:14:50.464Z,100833.59
2022-08-26T15:17:18.017Z,100814.19
2022-08-26T15:19:45.208Z,100811.84
2022-08-26T15:22:12.405Z,100825.69
2022-08-26T15:24:39.468Z,100804.06
2022-08-26T15:27:06.981Z,100800.88
2022-08-26T15:29:37.257Z,100811.25
2022-08-26T15:32:05.345Z,100814.91
2022-08-26T15:34:47.561Z,100811.56
2022-08-26T15:37:35.852Z,100772.09
2022-08-26T15:43:11.326Z,100802.34
2022-08-26T15:45:54.194Z,100804.69
2022-08-26T15:48:36.017Z,100786.03
2022-08-26T16:08:47.949Z,100803.78
2022-08-26T16:18:34.504Z,100808.44
2022-08-26T16:22:07.616Z,100799.59
2022-08-26T16:24:03.438Z,100811.16
2022-08-26T16:26:59.523Z,100810.28
2022-08-26T16:29:32.297Z,100791.59
2022-08-26T16:34:59.390Z,100813.28
2022-08-26T16:38:27.403Z,100793.78
2022-08-26T16:40:54.712Z,100810.25
2022-08-26T16:43:22.019Z,100813.88
2022-08-26T16:45:49.432Z,100783.72
2022-08-26T16:48:16.738Z,100772.50
2022-08-26T16:50:44.019Z,100781.44
2022-08-26T16:55:38.991Z,100801.44
2022-08-26T16:58:10.004Z,100795.47
2022-08-26T17:00:38.715Z,100788.75
2022-08-26T17:03:06.008Z,100791.38
2022-08-26T17:05:33.404Z,100755.13
2022-08-26T17:08:21.819Z,100784.94
2022-08-26T17:10:54.972Z,100783.88
2022-08-26T17:13:34.713Z,100754.13
2022-08-26T17:16:06.558Z,100746.13
2022-08-26T17:18:34.930Z,100759.03
2022-08-26T17:21:08.549Z,100758.34
2022-08-26T17:23:46.307Z,100745.69
2022-08-26T17:37:23.304Z,100742.25
2022-08-26T17:42:48.122Z,100781.16
2022-08-26T17:47:56.321Z,100759.72
2022-08-26T17:50:25.923Z,100732.88
2022-08-26T17:52:55.053Z,100738.56
2022-08-26T17:55:28.167Z,100778.03
2022-08-26T17:58:04.091Z,100773.25
2022-08-26T18:00:38.422Z,100760.13
2022-08-26T18:03:20.095Z,100769.81
2022-08-26T18:05:49.443Z,100739.84
2022-08-26T18:08:22.627Z,100776.38
2022-08-26T18:10:55.145Z,100771.16
2022-08-26T18:13:31.500Z,100741.31
2022-08-26T18:16:02.778Z,100775.78
2022-08-26T18:18:31.357Z,100737.50
2022-08-26T18:21:01.533Z,100780.19
2022-08-26T18:23:31.503Z,100761.44
2022-08-26T18:26:04.475Z,100787.56
2022-08-26T18:28:34.658Z,100772.34
2022-08-26T18:31:12.537Z,100757.34
2022-08-26T18:33:43.347Z,100797.44
2022-08-26T18:36:24.102Z,100801.66
2022-08-26T18:38:52.378Z,100790.25
2022-08-26T18:41:21.485Z,100809.56
2022-08-26T18:43:50.913Z,100806.09
2022-08-26T18:46:19.686Z,100817.38
2022-08-26T18:48:51.233Z,100776.47
2022-08-26T18:51:33.094Z,100770.88
2022-08-26T18:56:47.894Z,100808.03
2022-08-26T18:59:30.480Z,100809.75
2022-08-26T19:01:58.542Z,100821.91
2022-08-26T19:04:26.051Z,100810.25
2022-08-26T19:06:58.832Z,100794.31
2022-08-26T19:09:38.411Z,100827.78
2022-08-26T19:12:09.140Z,100819.72
2022-08-26T19:14:36.751Z,100813.03
2022-08-26T19:17:06.439Z,100802.66
2022-08-26T19:19:33.802Z,100804.72
2022-08-26T19:22:08.007Z,100832.09
2022-08-26T19:24:35.945Z,100824.03
2022-08-26T19:27:03.552Z,100824.91
2022-08-26T19:29:36.432Z,100830.22
2022-08-26T19:32:04.785Z,100816.50
2022-08-26T19:34:36.371Z,100832.00
2022-08-26T19:37:03.628Z,100801.94
2022-08-26T19:39:31.091Z,100844.72
2022-08-26T19:41:59.597Z,100827.09
2022-08-26T19:44:45.248Z,100845.66
2022-08-26T19:47:13.339Z,100829.78
2022-08-26T19:49:46.908Z,100859.25
2022-08-26T19:52:16.951Z,100855.97
2022-08-26T19:54:47.261Z,100851.53
2022-08-26T19:57:17.610Z,100858.81
2022-08-26T19:59:44.964Z,100858.09
2022-08-26T20:02:15.232Z,100855.59
2022-08-26T20:04:46.225Z,100867.84
2022-08-26T20:07:25.547Z,100867.84
2022-08-26T20:10:04.602Z,100837.41
2022-08-26T20:12:41.333Z,100851.06
2022-08-26T20:16:20.900Z,100879.66
2022-08-26T20:18:31.385Z,100878.09
2022-08-26T20:21:18.511Z,100864.69
2022-08-26T20:23:54.140Z,100874.06
2022-08-26T20:26:31.164Z,100873.97
2022-08-26T20:28:59.005Z,100882.69
2022-08-26T20:31:26.953Z,100883.97
2022-08-26T20:33:54.308Z,100865.59
2022-08-26T20:36:24.450Z,100846.19
2022-08-26T20:38:51.721Z,100867.72
2022-08-26T20:41:34.044Z,100877.97
2022-08-26T20:44:02.485Z,100882.88
2022-08-26T20:46:31.996Z,100849.94
2022-08-26T20:48:59.170Z,100848.88
2022-08-26T20:52:21.805Z,100866.91
2022-08-26T20:54:42.884Z,100838.09
2022-08-26T20:57:22.920Z,100879.44
2022-08-26T20:59:50.555Z,100873.31
2022-08-26T21:03:57.034Z,100837.66
2022-08-26T21:05:10.356Z,100858.09
2022-08-26T21:07:37.673Z,100849.75
2022-08-26T21:10:08.106Z,100837.66
2022-08-26T21:12:38.929Z,100880.66
2022-08-26T21:15:09.270Z,100874.19
2022-08-26T21:17:36.521Z,100873.53
2022-08-26T21:20:04.764Z,100895.34
2022-08-26T21:22:31.981Z,100853.53
2022-08-26T21:25:50.209Z,100894.59
2022-08-26T21:28:17.658Z,100871.19
2022-08-26T21:30:45.020Z,100889.00
